sensor_id;sensor_type;location;lat;lon;timestamp;temperature;humidity
10411;DHT22;5251;52.112;8.606;2023-03-01T00:01:29;0.60;91.70
10411;DHT22;5251;52.112;8.606;2023-03-01T00:03:55;0.60;91.70
10411;DHT22;5251;52.112;8.606;2023-03-01T00:06:22;0.60;91.70
10411;DHT22;5251;52.112;8.606;2023-03-01T00:08:48;0.60;91.70
10411;DHT22;5251;52.112;8.606;2023-03-01T00:11:22;0.60;91.70
10411;DHT22;5251;52.112;8.606;2023-03-01T00:13:50;0.60;91.70
10411;DHT22;5251;52.112;8.606;2023-03-01T00:16:22;0.60;91.70
10411;DHT22;5251;52.112;8.606;2023-03-01T00:18:48;0.50;91.70
10411;DHT22;5251;52.112;8.606;2023-03-01T00:21:14;0.50;91.70
10411;DHT22;5251;52.112;8.606;2023-03-01T00:23:40;0.50;91.80
10411;DHT22;5251;52.112;8.606;2023-03-01T00:26:08;0.50;91.80
10411;DHT22;5251;52.112;8.606;2023-03-01T00:28:34;0.40;91.90
10411;DHT22;5251;52.112;8.606;2023-03-01T00:31:07;0.40;92.00
10411;DHT22;5251;52.112;8.606;2023-03-01T00:33:33;0.40;92.00
10411;DHT22;5251;52.112;8.606;2023-03-01T00:36:00;0.30;92.00
10411;DHT22;5251;52.112;8.606;2023-03-01T00:38:26;0.30;92.00
10411;DHT22;5251;52.112;8.606;2023-03-01T00:40:52;0.30;92.00
10411;DHT22;5251;52.112;8.606;2023-03-01T00:43:18;0.30;92.00
10411;DHT22;5251;52.112;8.606;2023-03-01T00:45:44;0.20;92.00
10411;DHT22;5251;52.112;8.606;2023-03-01T00:48:10;0.20;92.00
10411;DHT22;5251;52.112;8.606;2023-03-01T00:50:35;0.20;92.00
10411;DHT22;5251;52.112;8.606;2023-03-01T00:53:01;0.10;92.00
10411;DHT22;5251;52.112;8.606;2023-03-01T00:55:27;0.10;92.10
10411;DHT22;5251;52.112;8.606;2023-03-01T00:57:53;0.10;92.10
10411;DHT22;5251;52.112;8.606;2023-03-01T01:00:19;0.00;92.10
10411;DHT22;5251;52.112;8.606;2023-03-01T01:02:45;0.00;92.20
10411;DHT22;5251;52.112;8.606;2023-03-01T01:05:12;0.00;92.10
10411;DHT22;5251;52.112;8.606;2023-03-01T01:07:38;-0.10;92.10
10411;DHT22;5251;52.112;8.606;2023-03-01T01:10:04;-0.10;92.10
10411;DHT22;5251;52.112;8.606;2023-03-01T01:12:29;-0.10;92.20
10411;DHT22;5251;52.112;8.606;2023-03-01T01:14:55;-0.10;92.20
10411;DHT22;5251;52.112;8.606;2023-03-01T01:17:20;-0.10;92.20
10411;DHT22;5251;52.112;8.606;2023-03-01T01:19:46;-0.20;92.20
10411;DHT22;5251;52.112;8.606;2023-03-01T01:22:12;-0.20;92.30
10411;DHT22;5251;52.112;8.606;2023-03-01T01:24:37;-0.20;92.40
10411;DHT22;5251;52.112;8.606;2023-03-01T01:27:03;-0.30;92.40
10411;DHT22;5251;52.112;8.606;2023-03-01T01:29:28;-0.30;92.50
10411;DHT22;5251;52.112;8.606;2023-03-01T01:31:54;-0.30;92.50
10411;DHT22;5251;52.112;8.606;2023-03-01T01:34:21;-0.30;92.50
10411;DHT22;5251;52.112;8.606;2023-03-01T01:36:53;-0.30;92.60
10411;DHT22;5251;52.112;8.606;2023-03-01T01:39:20;-0.40;92.60
10411;DHT22;5251;52.112;8.606;2023-03-01T01:41:46;-0.40;92.70
10411;DHT22;5251;52.112;8.606;2023-03-01T01:44:15;-0.40;92.70
10411;DHT22;5251;52.112;8.606;2023-03-01T01:47:06;-0.40;92.70
10411;DHT22;5251;52.112;8.606;2023-03-01T01:49:52;-0.50;92.60
10411;DHT22;5251;52.112;8.606;2023-03-01T01:52:24;-0.50;92.70
10411;DHT22;5251;52.112;8.606;2023-03-01T01:55:04;-0.50;92.70
10411;DHT22;5251;52.112;8.606;2023-03-01T01:57:35;-0.60;92.60
10411;DHT22;5251;52.112;8.606;2023-03-01T02:00:07;-0.60;92.60
10411;DHT22;5251;52.112;8.606;2023-03-01T02:02:33;-0.60;92.70
10411;DHT22;5251;52.112;8.606;2023-03-01T02:05:06;-0.70;93.00
10411;DHT22;5251;52.112;8.606;2023-03-01T02:07:38;-0.70;92.80
10411;DHT22;5251;52.112;8.606;2023-03-01T02:10:05;-0.70;92.80
10411;DHT22;5251;52.112;8.606;2023-03-01T02:12:31;-0.70;92.90
10411;DHT22;5251;52.112;8.606;2023-03-01T02:14:57;-0.70;93.00
10411;DHT22;5251;52.112;8.606;2023-03-01T02:17:23;-0.70;93.10
10411;DHT22;5251;52.112;8.606;2023-03-01T02:22:34;-0.80;93.10
10411;DHT22;5251;52.112;8.606;2023-03-01T02:25:12;-0.80;93.20
10411;DHT22;5251;52.112;8.606;2023-03-01T02:30:36;-0.80;93.10
10411;DHT22;5251;52.112;8.606;2023-03-01T02:33:03;-0.90;93.10
10411;DHT22;5251;52.112;8.606;2023-03-01T02:35:33;-0.90;93.10
10411;DHT22;5251;52.112;8.606;2023-03-01T02:38:00;-0.90;93.20
10411;DHT22;5251;52.112;8.606;2023-03-01T02:40:29;-0.90;93.30
10411;DHT22;5251;52.112;8.606;2023-03-01T02:42:57;-0.90;93.30
10411;DHT22;5251;52.112;8.606;2023-03-01T02:45:24;-0.90;93.40
10411;DHT22;5251;52.112;8.606;2023-03-01T02:47:54;-1.00;93.40
10411;DHT22;5251;52.112;8.606;2023-03-01T02:53:00;-1.00;93.50
10411;DHT22;5251;52.112;8.606;2023-03-01T02:55:27;-1.00;93.50
10411;DHT22;5251;52.112;8.606;2023-03-01T02:57:53;-1.00;93.50
10411;DHT22;5251;52.112;8.606;2023-03-01T03:00:28;-1.00;93.50
10411;DHT22;5251;52.112;8.606;2023-03-01T03:02:56;-1.00;93.50
10411;DHT22;5251;52.112;8.606;2023-03-01T03:05:27;-1.10;93.50
10411;DHT22;5251;52.112;8.606;2023-03-01T03:07:54;-1.10;93.50
10411;DHT22;5251;52.112;8.606;2023-03-01T03:10:24;-1.10;93.70
10411;DHT22;5251;52.112;8.606;2023-03-01T03:12:58;-1.10;93.70
10411;DHT22;5251;52.112;8.606;2023-03-01T03:15:25;-1.00;93.80
10411;DHT22;5251;52.112;8.606;2023-03-01T03:17:52;-1.10;93.80
10411;DHT22;5251;52.112;8.606;2023-03-01T03:20:20;-1.10;93.80
10411;DHT22;5251;52.112;8.606;2023-03-01T03:22:49;-1.10;93.80
10411;DHT22;5251;52.112;8.606;2023-03-01T03:25:16;-1.10;93.90
10411;DHT22;5251;52.112;8.606;2023-03-01T03:27:43;-1.10;94.00
10411;DHT22;5251;52.112;8.606;2023-03-01T03:30:11;-1.10;93.90
10411;DHT22;5251;52.112;8.606;2023-03-01T03:32:39;-1.10;93.90
10411;DHT22;5251;52.112;8.606;2023-03-01T03:35:05;-1.20;93.80
10411;DHT22;5251;52.112;8.606;2023-03-01T03:37:39;-1.20;93.80
10411;DHT22;5251;52.112;8.606;2023-03-01T03:40:25;-1.20;93.90
10411;DHT22;5251;52.112;8.606;2023-03-01T03:42:50;-1.20;93.90
10411;DHT22;5251;52.112;8.606;2023-03-01T03:45:17;-1.30;93.90
10411;DHT22;5251;52.112;8.606;2023-03-01T03:47:43;-1.30;93.90
10411;DHT22;5251;52.112;8.606;2023-03-01T03:50:14;-1.30;93.90
10411;DHT22;5251;52.112;8.606;2023-03-01T03:52:40;-1.30;94.00
10411;DHT22;5251;52.112;8.606;2023-03-01T03:55:08;-1.30;94.00
10411;DHT22;5251;52.112;8.606;2023-03-01T03:57:39;-1.30;94.00
10411;DHT22;5251;52.112;8.606;2023-03-01T04:00:07;-1.40;94.00
10411;DHT22;5251;52.112;8.606;2023-03-01T04:02:42;-1.40;94.10
10411;DHT22;5251;52.112;8.606;2023-03-01T04:05:09;-1.40;94.10
10411;DHT22;5251;52.112;8.606;2023-03-01T04:07:36;-1.40;94.20
10411;DHT22;5251;52.112;8.606;2023-03-01T04:10:07;-1.40;94.20
10411;DHT22;5251;52.112;8.606;2023-03-01T04:12:34;-1.40;94.20
10411;DHT22;5251;52.112;8.606;2023-03-01T04:15:00;-1.40;94.30
10411;DHT22;5251;52.112;8.606;2023-03-01T04:17:26;-1.40;94.30
10411;DHT22;5251;52.112;8.606;2023-03-01T04:19:52;-1.40;94.30
10411;DHT22;5251;52.112;8.606;2023-03-01T04:22:18;-1.40;94.30
10411;DHT22;5251;52.112;8.606;2023-03-01T04:24:44;-1.50;94.30
10411;DHT22;5251;52.112;8.606;2023-03-01T04:27:10;-1.50;94.40
10411;DHT22;5251;52.112;8.606;2023-03-01T04:29:36;-1.50;94.40
10411;DHT22;5251;52.112;8.606;2023-03-01T04:32:02;-1.50;94.50
10411;DHT22;5251;52.112;8.606;2023-03-01T04:34:28;-1.50;94.50
10411;DHT22;5251;52.112;8.606;2023-03-01T04:36:54;-1.50;94.50
10411;DHT22;5251;52.112;8.606;2023-03-01T04:39:20;-1.50;94.50
10411;DHT22;5251;52.112;8.606;2023-03-01T04:41:46;-1.50;94.50
10411;DHT22;5251;52.112;8.606;2023-03-01T04:44:12;-1.50;94.60
10411;DHT22;5251;52.112;8.606;2023-03-01T04:46:38;-1.50;94.60
10411;DHT22;5251;52.112;8.606;2023-03-01T04:49:04;-1.50;94.60
10411;DHT22;5251;52.112;8.606;2023-03-01T04:51:30;-1.50;94.60
10411;DHT22;5251;52.112;8.606;2023-03-01T04:53:57;-1.50;94.60
10411;DHT22;5251;52.112;8.606;2023-03-01T04:56:23;-1.60;94.50
10411;DHT22;5251;52.112;8.606;2023-03-01T04:58:49;-1.60;94.50
10411;DHT22;5251;52.112;8.606;2023-03-01T05:01:19;-1.60;94.50
10411;DHT22;5251;52.112;8.606;2023-03-01T05:03:47;-1.60;94.50
10411;DHT22;5251;52.112;8.606;2023-03-01T05:06:13;-1.60;94.50
10411;DHT22;5251;52.112;8.606;2023-03-01T05:08:40;-1.70;94.40
10411;DHT22;5251;52.112;8.606;2023-03-01T05:11:06;-1.70;94.40
10411;DHT22;5251;52.112;8.606;2023-03-01T05:13:35;-1.70;94.40
10411;DHT22;5251;52.112;8.606;2023-03-01T05:16:02;-1.70;94.40
10411;DHT22;5251;52.112;8.606;2023-03-01T05:18:30;-1.70;94.40
10411;DHT22;5251;52.112;8.606;2023-03-01T05:21:11;-1.80;94.40
10411;DHT22;5251;52.112;8.606;2023-03-01T05:23:38;-1.80;94.40
10411;DHT22;5251;52.112;8.606;2023-03-01T05:26:05;-1.80;94.40
10411;DHT22;5251;52.112;8.606;2023-03-01T05:28:32;-1.80;94.40
10411;DHT22;5251;52.112;8.606;2023-03-01T05:30:58;-1.80;94.40
10411;DHT22;5251;52.112;8.606;2023-03-01T05:33:24;-1.80;94.50
10411;DHT22;5251;52.112;8.606;2023-03-01T05:35:51;-1.80;94.50
10411;DHT22;5251;52.112;8.606;2023-03-01T05:38:20;-1.90;94.50
10411;DHT22;5251;52.112;8.606;2023-03-01T05:40:47;-1.80;94.50
10411;DHT22;5251;52.112;8.606;2023-03-01T05:43:15;-1.90;94.50
10411;DHT22;5251;52.112;8.606;2023-03-01T05:45:41;-1.90;94.40
10411;DHT22;5251;52.112;8.606;2023-03-01T05:48:08;-1.90;94.50
10411;DHT22;5251;52.112;8.606;2023-03-01T05:50:36;-1.90;94.40
10411;DHT22;5251;52.112;8.606;2023-03-01T05:53:05;-1.90;94.40
10411;DHT22;5251;52.112;8.606;2023-03-01T05:55:33;-2.00;94.40
10411;DHT22;5251;52.112;8.606;2023-03-01T05:58:00;-2.00;94.50
10411;DHT22;5251;52.112;8.606;2023-03-01T06:00:26;-2.00;94.50
10411;DHT22;5251;52.112;8.606;2023-03-01T06:02:54;-2.00;94.50
10411;DHT22;5251;52.112;8.606;2023-03-01T06:05:20;-2.00;94.50
10411;DHT22;5251;52.112;8.606;2023-03-01T06:07:46;-2.00;94.50
10411;DHT22;5251;52.112;8.606;2023-03-01T06:10:13;-2.00;94.50
10411;DHT22;5251;52.112;8.606;2023-03-01T06:12:40;-2.00;94.50
10411;DHT22;5251;52.112;8.606;2023-03-01T06:15:07;-2.10;94.50
10411;DHT22;5251;52.112;8.606;2023-03-01T06:17:36;-2.10;94.50
10411;DHT22;5251;52.112;8.606;2023-03-01T06:22:37;-2.10;94.50
10411;DHT22;5251;52.112;8.606;2023-03-01T06:25:03;-2.10;94.50
10411;DHT22;5251;52.112;8.606;2023-03-01T06:27:28;-2.10;94.50
10411;DHT22;5251;52.112;8.606;2023-03-01T06:29:54;-2.10;94.60
10411;DHT22;5251;52.112;8.606;2023-03-01T06:32:20;-2.10;94.60
10411;DHT22;5251;52.112;8.606;2023-03-01T06:34:45;-2.10;94.60
10411;DHT22;5251;52.112;8.606;2023-03-01T06:37:11;-2.10;94.60
10411;DHT22;5251;52.112;8.606;2023-03-01T06:39:36;-2.10;94.60
10411;DHT22;5251;52.112;8.606;2023-03-01T06:42:02;-2.10;94.70
10411;DHT22;5251;52.112;8.606;2023-03-01T06:44:28;-2.10;94.80
10411;DHT22;5251;52.112;8.606;2023-03-01T06:46:54;-2.10;94.80
10411;DHT22;5251;52.112;8.606;2023-03-01T06:49:19;-2.10;94.90
10411;DHT22;5251;52.112;8.606;2023-03-01T06:51:45;-2.10;95.00
10411;DHT22;5251;52.112;8.606;2023-03-01T06:54:11;-2.00;95.10
10411;DHT22;5251;52.112;8.606;2023-03-01T06:56:37;-2.00;95.10
10411;DHT22;5251;52.112;8.606;2023-03-01T06:59:03;-2.00;95.10
10411;DHT22;5251;52.112;8.606;2023-03-01T07:01:30;-2.00;95.20
10411;DHT22;5251;52.112;8.606;2023-03-01T07:03:56;-1.90;95.30
10411;DHT22;5251;52.112;8.606;2023-03-01T07:06:22;-1.90;95.30
10411;DHT22;5251;52.112;8.606;2023-03-01T07:08:48;-1.90;95.40
10411;DHT22;5251;52.112;8.606;2023-03-01T07:11:14;-1.80;95.50
10411;DHT22;5251;52.112;8.606;2023-03-01T07:13:40;-1.80;95.60
10411;DHT22;5251;52.112;8.606;2023-03-01T07:16:06;-1.70;95.80
10411;DHT22;5251;52.112;8.606;2023-03-01T07:18:31;-1.60;96.10
10411;DHT22;5251;52.112;8.606;2023-03-01T07:20:57;-1.60;96.20
10411;DHT22;5251;52.112;8.606;2023-03-01T07:23:22;-1.50;96.30
10411;DHT22;5251;52.112;8.606;2023-03-01T07:25:52;-1.40;96.40
10411;DHT22;5251;52.112;8.606;2023-03-01T07:28:18;-1.30;96.60
10411;DHT22;5251;52.112;8.606;2023-03-01T07:30:44;-1.20;96.70
10411;DHT22;5251;52.112;8.606;2023-03-01T07:33:10;-1.10;96.80
10411;DHT22;5251;52.112;8.606;2023-03-01T07:35:35;-1.00;96.80
10411;DHT22;5251;52.112;8.606;2023-03-01T07:38:01;-0.90;97.00
10411;DHT22;5251;52.112;8.606;2023-03-01T07:40:26;-0.90;97.00
10411;DHT22;5251;52.112;8.606;2023-03-01T07:42:56;-0.80;97.10
10411;DHT22;5251;52.112;8.606;2023-03-01T07:45:22;-0.60;97.20
10411;DHT22;5251;52.112;8.606;2023-03-01T07:47:47;-0.60;97.20
10411;DHT22;5251;52.112;8.606;2023-03-01T07:50:13;-0.50;97.20
10411;DHT22;5251;52.112;8.606;2023-03-01T07:52:39;-0.40;97.20
10411;DHT22;5251;52.112;8.606;2023-03-01T07:55:05;-0.40;97.20
10411;DHT22;5251;52.112;8.606;2023-03-01T07:57:30;-0.30;97.20
10411;DHT22;5251;52.112;8.606;2023-03-01T07:59:56;-0.20;97.20
10411;DHT22;5251;52.112;8.606;2023-03-01T08:02:22;-0.10;97.20
10411;DHT22;5251;52.112;8.606;2023-03-01T08:04:48;-0.10;97.30
10411;DHT22;5251;52.112;8.606;2023-03-01T08:07:13;0.00;97.60
10411;DHT22;5251;52.112;8.606;2023-03-01T08:09:39;0.10;97.30
10411;DHT22;5251;52.112;8.606;2023-03-01T08:12:05;0.10;97.40
10411;DHT22;5251;52.112;8.606;2023-03-01T08:14:32;-0.20;97.20
10411;DHT22;5251;52.112;8.606;2023-03-01T08:16:57;0.30;97.50
10411;DHT22;5251;52.112;8.606;2023-03-01T08:19:23;0.30;97.60
10411;DHT22;5251;52.112;8.606;2023-03-01T08:21:49;0.40;97.60
10411;DHT22;5251;52.112;8.606;2023-03-01T08:24:14;0.50;97.60
10411;DHT22;5251;52.112;8.606;2023-03-01T08:26:40;0.60;97.70
10411;DHT22;5251;52.112;8.606;2023-03-01T08:29:06;0.60;97.70
10411;DHT22;5251;52.112;8.606;2023-03-01T08:31:38;0.70;97.70
10411;DHT22;5251;52.112;8.606;2023-03-01T08:34:10;0.80;97.80
10411;DHT22;5251;52.112;8.606;2023-03-01T08:36:38;0.90;97.70
10411;DHT22;5251;52.112;8.606;2023-03-01T08:39:05;1.00;97.70
10411;DHT22;5251;52.112;8.606;2023-03-01T08:41:31;1.20;97.70
10411;DHT22;5251;52.112;8.606;2023-03-01T08:43:57;1.30;97.80
10411;DHT22;5251;52.112;8.606;2023-03-01T08:46:31;1.40;97.80
10411;DHT22;5251;52.112;8.606;2023-03-01T08:48:57;1.50;97.70
10411;DHT22;5251;52.112;8.606;2023-03-01T08:51:24;1.60;97.60
10411;DHT22;5251;52.112;8.606;2023-03-01T08:53:50;1.70;97.40
10411;DHT22;5251;52.112;8.606;2023-03-01T08:56:17;1.80;97.20
10411;DHT22;5251;52.112;8.606;2023-03-01T08:58:45;2.00;97.10
10411;DHT22;5251;52.112;8.606;2023-03-01T09:01:13;2.10;96.70
10411;DHT22;5251;52.112;8.606;2023-03-01T09:03:40;2.20;96.20
10411;DHT22;5251;52.112;8.606;2023-03-01T09:06:07;2.30;96.00
10411;DHT22;5251;52.112;8.606;2023-03-01T09:08:41;2.40;95.60
10411;DHT22;5251;52.112;8.606;2023-03-01T09:11:08;2.50;95.20
10411;DHT22;5251;52.112;8.606;2023-03-01T09:13:34;2.60;95.10
10411;DHT22;5251;52.112;8.606;2023-03-01T09:16:02;2.70;94.60
10411;DHT22;5251;52.112;8.606;2023-03-01T09:18:28;2.80;94.50
10411;DHT22;5251;52.112;8.606;2023-03-01T09:21:00;3.00;94.10
10411;DHT22;5251;52.112;8.606;2023-03-01T09:23:26;3.00;93.60
10411;DHT22;5251;52.112;8.606;2023-03-01T09:25:52;3.20;93.10
10411;DHT22;5251;52.112;8.606;2023-03-01T09:28:18;3.30;92.90
10411;DHT22;5251;52.112;8.606;2023-03-01T09:30:43;3.40;92.30
10411;DHT22;5251;52.112;8.606;2023-03-01T09:33:09;3.50;92.20
10411;DHT22;5251;52.112;8.606;2023-03-01T09:35:40;3.60;92.00
10411;DHT22;5251;52.112;8.606;2023-03-01T09:38:12;3.70;92.10
10411;DHT22;5251;52.112;8.606;2023-03-01T09:40:42;3.80;92.00
10411;DHT22;5251;52.112;8.606;2023-03-01T09:43:23;3.90;92.10
10411;DHT22;5251;52.112;8.606;2023-03-01T09:45:53;4.00;91.70
10411;DHT22;5251;52.112;8.606;2023-03-01T09:48:24;4.20;91.20
10411;DHT22;5251;52.112;8.606;2023-03-01T09:50:51;4.20;90.80
10411;DHT22;5251;52.112;8.606;2023-03-01T09:53:23;4.30;90.90
10411;DHT22;5251;52.112;8.606;2023-03-01T09:56:05;4.40;90.70
10411;DHT22;5251;52.112;8.606;2023-03-01T09:58:54;4.50;89.90
10411;DHT22;5251;52.112;8.606;2023-03-01T10:06:26;4.80;88.00
10411;DHT22;5251;52.112;8.606;2023-03-01T10:08:58;4.80;87.50
10411;DHT22;5251;52.112;8.606;2023-03-01T10:11:28;4.90;86.90
10411;DHT22;5251;52.112;8.606;2023-03-01T10:19:17;5.10;85.20
10411;DHT22;5251;52.112;8.606;2023-03-01T10:21:48;5.20;83.60
10411;DHT22;5251;52.112;8.606;2023-03-01T10:24:17;5.30;83.00
10411;DHT22;5251;52.112;8.606;2023-03-01T10:26:56;5.30;81.60
10411;DHT22;5251;52.112;8.606;2023-03-01T10:29:48;5.40;81.60
10411;DHT22;5251;52.112;8.606;2023-03-01T10:32:14;5.40;80.50
10411;DHT22;5251;52.112;8.606;2023-03-01T10:34:41;5.50;80.30
10411;DHT22;5251;52.112;8.606;2023-03-01T10:37:11;5.50;80.10
10411;DHT22;5251;52.112;8.606;2023-03-01T10:39:57;5.60;80.90
10411;DHT22;5251;52.112;8.606;2023-03-01T10:42:29;5.60;80.80
10411;DHT22;5251;52.112;8.606;2023-03-01T10:44:56;5.70;80.20
10411;DHT22;5251;52.112;8.606;2023-03-01T10:47:23;5.70;80.20
10411;DHT22;5251;52.112;8.606;2023-03-01T10:50:04;5.80;79.30
10411;DHT22;5251;52.112;8.606;2023-03-01T10:52:34;5.80;80.10
10411;DHT22;5251;52.112;8.606;2023-03-01T10:55:22;5.90;79.80
10411;DHT22;5251;52.112;8.606;2023-03-01T10:57:48;6.00;78.80
10411;DHT22;5251;52.112;8.606;2023-03-01T11:00:22;6.00;77.60
10411;DHT22;5251;52.112;8.606;2023-03-01T11:05:24;6.10;77.30
10411;DHT22;5251;52.112;8.606;2023-03-01T11:07:58;6.10;77.70
10411;DHT22;5251;52.112;8.606;2023-03-01T11:13:05;6.20;77.40
10411;DHT22;5251;52.112;8.606;2023-03-01T11:15:32;6.30;77.10
10411;DHT22;5251;52.112;8.606;2023-03-01T11:17:57;6.30;75.70
10411;DHT22;5251;52.112;8.606;2023-03-01T11:23:05;6.40;76.80
10411;DHT22;5251;52.112;8.606;2023-03-01T11:25:37;6.40;75.60
10411;DHT22;5251;52.112;8.606;2023-03-01T11:28:06;6.50;74.30
10411;DHT22;5251;52.112;8.606;2023-03-01T11:30:38;6.50;75.90
10411;DHT22;5251;52.112;8.606;2023-03-01T11:35:36;6.70;75.10
10411;DHT22;5251;52.112;8.606;2023-03-01T11:38:14;6.70;74.00
10411;DHT22;5251;52.112;8.606;2023-03-01T11:40:49;6.80;74.40
10411;DHT22;5251;52.112;8.606;2023-03-01T11:51:30;7.00;73.70
10411;DHT22;5251;52.112;8.606;2023-03-01T11:59:38;7.10;72.20
10411;DHT22;5251;52.112;8.606;2023-03-01T12:09:57;7.30;71.20
10411;DHT22;5251;52.112;8.606;2023-03-01T12:23:56;7.40;72.70
10411;DHT22;5251;52.112;8.606;2023-03-01T12:26:38;7.50;72.70
10411;DHT22;5251;52.112;8.606;2023-03-01T12:29:29;7.60;70.90
10411;DHT22;5251;52.112;8.606;2023-03-01T12:32:02;7.60;71.40
10411;DHT22;5251;52.112;8.606;2023-03-01T12:34:51;7.60;71.10
10411;DHT22;5251;52.112;8.606;2023-03-01T12:37:25;7.60;70.70
10411;DHT22;5251;52.112;8.606;2023-03-01T12:40:29;7.70;72.50
10411;DHT22;5251;52.112;8.606;2023-03-01T12:45:51;7.70;72.10
10411;DHT22;5251;52.112;8.606;2023-03-01T12:50:55;7.80;71.10
10411;DHT22;5251;52.112;8.606;2023-03-01T12:53:34;7.80;71.20
10411;DHT22;5251;52.112;8.606;2023-03-01T12:56:10;7.80;72.20
10411;DHT22;5251;52.112;8.606;2023-03-01T13:04:33;7.90;70.10
10411;DHT22;5251;52.112;8.606;2023-03-01T13:10:01;7.90;69.90
10411;DHT22;5251;52.112;8.606;2023-03-01T13:17:51;7.90;70.10
10411;DHT22;5251;52.112;8.606;2023-03-01T13:20:21;8.00;70.40
10411;DHT22;5251;52.112;8.606;2023-03-01T13:23:01;8.00;69.80
10411;DHT22;5251;52.112;8.606;2023-03-01T13:25:28;8.00;70.90
10411;DHT22;5251;52.112;8.606;2023-03-01T13:30:58;8.10;69.50
10411;DHT22;5251;52.112;8.606;2023-03-01T13:33:33;8.10;69.70
10411;DHT22;5251;52.112;8.606;2023-03-01T13:36:01;8.10;70.40
10411;DHT22;5251;52.112;8.606;2023-03-01T13:38:47;8.10;70.90
10411;DHT22;5251;52.112;8.606;2023-03-01T13:41:14;8.10;70.00
10411;DHT22;5251;52.112;8.606;2023-03-01T13:43:42;8.20;68.50
10411;DHT22;5251;52.112;8.606;2023-03-01T13:46:21;8.20;68.60
10411;DHT22;5251;52.112;8.606;2023-03-01T13:48:52;8.20;68.60
10411;DHT22;5251;52.112;8.606;2023-03-01T13:51:26;8.30;68.50
10411;DHT22;5251;52.112;8.606;2023-03-01T13:53:54;8.20;69.00
10411;DHT22;5251;52.112;8.606;2023-03-01T13:56:36;8.30;68.40
10411;DHT22;5251;52.112;8.606;2023-03-01T13:59:05;8.30;68.80
10411;DHT22;5251;52.112;8.606;2023-03-01T14:01:34;8.30;68.60
10411;DHT22;5251;52.112;8.606;2023-03-01T14:04:16;8.30;69.00
10411;DHT22;5251;52.112;8.606;2023-03-01T14:06:43;8.30;68.40
10411;DHT22;5251;52.112;8.606;2023-03-01T14:09:21;8.40;68.30
10411;DHT22;5251;52.112;8.606;2023-03-01T14:15:06;8.40;68.00
10411;DHT22;5251;52.112;8.606;2023-03-01T14:17:44;8.40;67.90
10411;DHT22;5251;52.112;8.606;2023-03-01T14:20:21;8.40;67.50
10411;DHT22;5251;52.112;8.606;2023-03-01T14:22:48;8.40;67.70
10411;DHT22;5251;52.112;8.606;2023-03-01T14:25:36;8.40;68.30
10411;DHT22;5251;52.112;8.606;2023-03-01T14:28:18;8.40;67.70
10411;DHT22;5251;52.112;8.606;2023-03-01T14:30:48;8.40;67.10
10411;DHT22;5251;52.112;8.606;2023-03-01T14:33:43;8.40;67.00
10411;DHT22;5251;52.112;8.606;2023-03-01T14:36:10;8.50;67.20
10411;DHT22;5251;52.112;8.606;2023-03-01T14:38:45;8.40;67.10
10411;DHT22;5251;52.112;8.606;2023-03-01T14:41:16;8.40;66.70
10411;DHT22;5251;52.112;8.606;2023-03-01T14:43:56;8.40;66.70
10411;DHT22;5251;52.112;8.606;2023-03-01T14:46:29;8.40;66.40
10411;DHT22;5251;52.112;8.606;2023-03-01T14:49:00;8.40;66.40
10411;DHT22;5251;52.112;8.606;2023-03-01T14:51:27;8.50;65.30
10411;DHT22;5251;52.112;8.606;2023-03-01T14:53:52;8.40;65.60
10411;DHT22;5251;52.112;8.606;2023-03-01T14:56:19;8.40;65.60
10411;DHT22;5251;52.112;8.606;2023-03-01T14:58:45;8.40;65.00
10411;DHT22;5251;52.112;8.606;2023-03-01T15:01:16;8.40;64.60
10411;DHT22;5251;52.112;8.606;2023-03-01T15:03:47;8.40;65.10
10411;DHT22;5251;52.112;8.606;2023-03-01T15:06:21;8.40;64.90
10411;DHT22;5251;52.112;8.606;2023-03-01T15:08:50;8.50;65.60
10411;DHT22;5251;52.112;8.606;2023-03-01T15:11:23;8.50;65.60
10411;DHT22;5251;52.112;8.606;2023-03-01T15:13:51;8.40;64.70
10411;DHT22;5251;52.112;8.606;2023-03-01T15:16:19;8.50;65.10
10411;DHT22;5251;52.112;8.606;2023-03-01T15:18:53;8.50;65.90
10411;DHT22;5251;52.112;8.606;2023-03-01T15:21:27;8.50;64.90
10411;DHT22;5251;52.112;8.606;2023-03-01T15:26:43;8.50;64.50
10411;DHT22;5251;52.112;8.606;2023-03-01T15:29:32;8.40;64.80
10411;DHT22;5251;52.112;8.606;2023-03-01T15:33:15;8.40;64.70
10411;DHT22;5251;52.112;8.606;2023-03-01T15:34:51;8.40;65.50
10411;DHT22;5251;52.112;8.606;2023-03-01T15:40:37;8.40;63.70
10411;DHT22;5251;52.112;8.606;2023-03-01T15:43:37;8.40;64.70
10411;DHT22;5251;52.112;8.606;2023-03-01T15:46:03;8.40;64.70
10411;DHT22;5251;52.112;8.606;2023-03-01T15:48:29;8.30;64.60
10411;DHT22;5251;52.112;8.606;2023-03-01T15:50:57;8.40;64.00
10411;DHT22;5251;52.112;8.606;2023-03-01T15:53:24;8.30;63.80
10411;DHT22;5251;52.112;8.606;2023-03-01T15:55:49;8.30;64.60
10411;DHT22;5251;52.112;8.606;2023-03-01T15:58:25;8.30;64.80
10411;DHT22;5251;52.112;8.606;2023-03-01T16:00:51;8.30;64.60
10411;DHT22;5251;52.112;8.606;2023-03-01T16:03:22;8.30;64.10
10411;DHT22;5251;52.112;8.606;2023-03-01T16:05:49;8.30;65.40
10411;DHT22;5251;52.112;8.606;2023-03-01T16:08:16;8.30;65.80
10411;DHT22;5251;52.112;8.606;2023-03-01T16:10:43;8.20;65.70
10411;DHT22;5251;52.112;8.606;2023-03-01T16:13:10;8.20;66.10
10411;DHT22;5251;52.112;8.606;2023-03-01T16:15:36;8.20;66.50
10411;DHT22;5251;52.112;8.606;2023-03-01T16:18:02;8.10;66.40
10411;DHT22;5251;52.112;8.606;2023-03-01T16:20:29;8.10;66.40
10411;DHT22;5251;52.112;8.606;2023-03-01T16:22:58;8.00;66.30
10411;DHT22;5251;52.112;8.606;2023-03-01T16:25:25;8.00;66.60
10411;DHT22;5251;52.112;8.606;2023-03-01T16:27:51;8.00;66.90
10411;DHT22;5251;52.112;8.606;2023-03-01T16:30:21;7.90;66.80
10411;DHT22;5251;52.112;8.606;2023-03-01T16:32:48;7.90;67.00
10411;DHT22;5251;52.112;8.606;2023-03-01T16:35:17;7.80;67.20
10411;DHT22;5251;52.112;8.606;2023-03-01T16:37:44;7.80;67.70
10411;DHT22;5251;52.112;8.606;2023-03-01T16:40:24;7.70;68.10
10411;DHT22;5251;52.112;8.606;2023-03-01T16:42:51;7.60;68.00
10411;DHT22;5251;52.112;8.606;2023-03-01T16:45:17;7.60;68.30
10411;DHT22;5251;52.112;8.606;2023-03-01T16:47:43;7.50;67.80
10411;DHT22;5251;52.112;8.606;2023-03-01T16:50:09;7.40;67.50
10411;DHT22;5251;52.112;8.606;2023-03-01T16:52:35;7.40;68.60
10411;DHT22;5251;52.112;8.606;2023-03-01T16:55:03;7.30;68.30
10411;DHT22;5251;52.112;8.606;2023-03-01T16:57:30;7.20;69.30
10411;DHT22;5251;52.112;8.606;2023-03-01T16:59:55;7.10;68.60
10411;DHT22;5251;52.112;8.606;2023-03-01T17:02:21;7.10;68.50
10411;DHT22;5251;52.112;8.606;2023-03-01T17:04:54;7.10;68.70
10411;DHT22;5251;52.112;8.606;2023-03-01T17:07:21;7.00;68.40
10411;DHT22;5251;52.112;8.606;2023-03-01T17:09:46;7.00;68.60
10411;DHT22;5251;52.112;8.606;2023-03-01T17:12:13;6.90;68.60
10411;DHT22;5251;52.112;8.606;2023-03-01T17:14:40;6.80;69.00
10411;DHT22;5251;52.112;8.606;2023-03-01T17:17:10;6.80;69.20
10411;DHT22;5251;52.112;8.606;2023-03-01T17:19:36;6.70;68.90
10411;DHT22;5251;52.112;8.606;2023-03-01T17:22:07;6.70;69.10
10411;DHT22;5251;52.112;8.606;2023-03-01T17:24:37;6.60;69.00
10411;DHT22;5251;52.112;8.606;2023-03-01T17:27:04;6.50;69.50
10411;DHT22;5251;52.112;8.606;2023-03-01T17:29:30;6.50;69.80
10411;DHT22;5251;52.112;8.606;2023-03-01T17:31:56;6.50;69.90
10411;DHT22;5251;52.112;8.606;2023-03-01T17:34:25;6.40;70.00
10411;DHT22;5251;52.112;8.606;2023-03-01T17:36:51;6.30;70.10
10411;DHT22;5251;52.112;8.606;2023-03-01T17:39:20;6.20;70.30
10411;DHT22;5251;52.112;8.606;2023-03-01T17:41:51;6.20;70.60
10411;DHT22;5251;52.112;8.606;2023-03-01T17:44:16;6.10;70.50